createdAt,value
2022-09-24T00:01:57.156Z,90.91
2022-09-24T00:04:27.743Z,90.67
2022-09-24T00:06:57.050Z,90.46
2022-09-24T00:09:25.095Z,89.95
2022-09-24T00:11:53.987Z,89.80
2022-09-24T00:14:22.300Z,89.82
2022-09-24T00:16:50.432Z,89.46
2022-09-24T00:19:18.668Z,90.86
2022-09-24T00:21:46.719Z,91.10
2022-09-24T00:24:38.554Z,91.00
2022-09-24T00:27:06.779Z,91.02
2022-09-24T00:29:36.160Z,91.61
2022-09-24T00:32:05.904Z,91.39
2022-09-24T00:34:34.288Z,91.59
2022-09-24T00:37:02.651Z,92.42
2022-09-24T00:39:32.598Z,92.23
2022-09-24T00:42:00.665Z,93.34
2022-09-24T00:44:56.362Z,92.94
2022-09-24T00:47:31.901Z,92.83
2022-09-24T00:50:19.290Z,92.83
2022-09-24T00:52:52.851Z,93.40
2022-09-24T00:55:25.078Z,92.80
2022-09-24T00:57:56.959Z,92.94
2022-09-24T01:00:25.211Z,93.83
2022-09-24T01:02:57.848Z,93.84
2022-09-24T01:05:25.931Z,93.81
2022-09-24T01:07:55.206Z,94.22
2022-09-24T01:10:51.896Z,94.15
2022-09-24T01:13:34.847Z,94.29
2022-09-24T01:16:08.556Z,94.51
2022-09-24T01:18:42.187Z,94.45
2022-09-24T01:21:27.677Z,94.43
2022-09-24T01:24:19.592Z,94.30
2022-09-24T01:27:00.165Z,94.77
2022-09-24T01:29:37.756Z,94.65
2022-09-24T01:32:09.050Z,94.99
2022-09-24T01:34:43.370Z,95.10
2022-09-24T01:37:15.390Z,95.25
2022-09-24T01:39:47.003Z,95.06
2022-09-24T01:42:16.138Z,95.42
2022-09-24T01:44:45.911Z,93.96
2022-09-24T01:47:20.599Z,95.71
2022-09-24T01:49:48.762Z,96.62
2022-09-24T01:52:24.118Z,96.71
2022-09-24T01:54:56.640Z,96.52
2022-09-24T01:57:30.228Z,97.81
2022-09-24T02:00:05.159Z,97.77
2022-09-24T02:02:39.853Z,97.58
2022-09-24T02:05:13.508Z,97.43
2022-09-24T02:07:47.061Z,97.14
2022-09-24T02:10:16.862Z,98.92
2022-09-24T02:12:49.122Z,98.65
2022-09-24T02:15:23.341Z,98.00
2022-09-24T02:17:53.770Z,99.45
2022-09-24T02:20:25.084Z,99.13
2022-09-24T02:22:55.927Z,99.55
2022-09-24T02:25:28.810Z,99.21
2022-09-24T02:27:57.253Z,99.52
2022-09-24T02:30:26.880Z,99.99
2022-09-24T02:32:56.990Z,100.00
2022-09-24T02:35:24.543Z,100.00
2022-09-24T02:37:52.535Z,100.00
2022-09-24T02:40:21.002Z,99.71
2022-09-24T02:42:50.255Z,99.28
2022-09-24T02:45:18.412Z,97.79
2022-09-24T02:47:47.731Z,98.99
2022-09-24T02:50:16.134Z,99.33
2022-09-24T02:52:44.473Z,100.00
2022-09-24T02:55:13.272Z,100.00
2022-09-24T02:57:41.347Z,100.00
2022-09-24T03:00:10.858Z,100.00
2022-09-24T03:02:38.866Z,100.00
2022-09-24T03:05:09.483Z,100.00
2022-09-24T03:07:37.943Z,100.00
2022-09-24T03:10:07.080Z,100.00
2022-09-24T03:12:34.959Z,100.00
2022-09-24T03:15:03.179Z,100.00
2022-09-24T03:17:31.185Z,100.00
2022-09-24T03:19:59.346Z,100.00
2022-09-24T03:22:29.434Z,100.00
2022-09-24T03:24:57.514Z,100.00
2022-09-24T03:27:25.876Z,100.00
2022-09-24T03:30:11.032Z,100.00
2022-09-24T03:32:39.317Z,100.00
2022-09-24T03:35:08.509Z,100.00
2022-09-24T03:37:38.971Z,100.00
2022-09-24T03:40:08.136Z,100.00
2022-09-24T03:42:36.729Z,100.00
2022-09-24T03:45:05.403Z,100.00
2022-09-24T03:47:33.532Z,100.00
2022-09-24T03:50:02.723Z,100.00
2022-09-24T03:52:30.735Z,100.00
2022-09-24T03:55:00.189Z,100.00
2022-09-24T03:57:28.127Z,100.00
2022-09-24T03:59:56.091Z,99.95
2022-09-24T04:02:24.113Z,99.79
2022-09-24T04:04:52.246Z,100.00
2022-09-24T04:07:20.158Z,99.65
2022-09-24T04:09:48.297Z,99.37
2022-09-24T04:12:18.029Z,97.71
2022-09-24T04:14:46.037Z,99.01
2022-09-24T04:17:14.586Z,99.72
2022-09-24T04:19:42.570Z,99.90
2022-09-24T04:22:10.614Z,98.62
2022-09-24T04:24:38.806Z,99.44
2022-09-24T04:27:07.042Z,99.59
2022-09-24T04:29:36.548Z,98.95
2022-09-24T04:32:04.759Z,97.91
2022-09-24T04:34:35.692Z,97.76
2022-09-24T04:37:03.859Z,98.06
2022-09-24T04:39:31.862Z,98.41
2022-09-24T04:42:00.214Z,98.19
2022-09-24T04:44:29.379Z,98.01
2022-09-24T04:47:03.010Z,99.26
2022-09-24T04:49:31.183Z,99.15
2022-09-24T04:51:59.124Z,99.33
2022-09-24T04:54:28.098Z,99.26
2022-09-24T04:56:56.084Z,98.68
2022-09-24T04:59:25.037Z,99.49
2022-09-24T05:01:54.628Z,100.00
2022-09-24T05:04:24.461Z,99.54
2022-09-24T05:06:52.438Z,97.76
2022-09-24T05:09:20.545Z,99.49
2022-09-24T05:11:48.455Z,98.70
2022-09-24T05:14:16.369Z,96.83
2022-09-24T05:16:44.301Z,96.21
2022-09-24T05:19:12.332Z,95.02
2022-09-24T05:21:41.610Z,93.13
2022-09-24T05:24:09.531Z,92.59
2022-09-24T05:26:54.930Z,92.17
2022-09-24T05:29:22.880Z,91.21
2022-09-24T05:31:51.006Z,90.79
2022-09-24T05:34:19.327Z,91.34
2022-09-24T05:36:49.456Z,87.44
2022-09-24T05:39:17.364Z,89.89
2022-09-24T05:41:45.265Z,90.17
2022-09-24T05:44:13.326Z,86.88
2022-09-24T05:46:41.301Z,86.85
2022-09-24T05:49:09.448Z,87.37
2022-09-24T05:51:37.402Z,84.66
2022-09-24T05:54:07.000Z,82.81
2022-09-24T05:56:35.011Z,81.62
2022-09-24T05:59:03.109Z,80.98
2022-09-24T06:01:31.562Z,79.92
2022-09-24T06:04:02.491Z,79.22
2022-09-24T06:06:33.031Z,79.06
2022-09-24T06:09:01.459Z,77.36
2022-09-24T06:11:39.669Z,77.69
2022-09-24T06:14:09.189Z,76.16
2022-09-24T06:16:37.762Z,74.71
2022-09-24T06:19:05.900Z,75.72
2022-09-24T06:21:33.958Z,74.66
2022-09-24T06:24:03.204Z,74.25
2022-09-24T06:26:33.238Z,74.71
2022-09-24T06:29:04.904Z,74.62
2022-09-24T06:31:33.135Z,72.66
2022-09-24T06:34:02.892Z,74.22
2022-09-24T06:36:30.906Z,73.54
2022-09-24T06:38:59.307Z,73.63
2022-09-24T06:41:27.258Z,73.74
2022-09-24T06:43:56.924Z,74.35
2022-09-24T06:46:26.203Z,71.31
2022-09-24T06:48:55.494Z,70.41
2022-09-24T06:51:24.095Z,71.07
2022-09-24T06:53:52.995Z,68.26
2022-09-24T06:56:21.210Z,70.80
2022-09-24T06:58:49.385Z,72.48
2022-09-24T07:01:18.901Z,70.66
2022-09-24T07:03:46.872Z,71.91
2022-09-24T07:06:15.284Z,68.99
2022-09-24T07:08:43.530Z,71.82
2022-09-24T07:11:11.518Z,71.75
2022-09-24T07:13:39.624Z,73.52
2022-09-24T07:16:08.060Z,71.16
2022-09-24T07:18:38.836Z,71.24
2022-09-24T07:21:07.279Z,69.83
2022-09-24T07:23:35.432Z,67.49
2022-09-24T07:26:03.467Z,68.32
2022-09-24T07:28:31.488Z,69.20
2022-09-24T07:31:00.867Z,67.65
2022-09-24T07:33:28.936Z,65.80
2022-09-24T07:35:58.343Z,64.71
2022-09-24T07:38:27.115Z,64.38
2022-09-24T07:40:59.468Z,64.71
2022-09-24T07:43:28.150Z,63.13
2022-09-24T07:45:58.347Z,62.41
2022-09-24T07:48:26.872Z,64.19
2022-09-24T07:50:54.947Z,62.32
2022-09-24T07:53:24.560Z,64.53
2022-09-24T07:55:52.788Z,62.92
2022-09-24T07:58:20.903Z,60.79
2022-09-24T08:00:48.835Z,62.71
2022-09-24T08:03:16.897Z,61.12
2022-09-24T08:05:45.924Z,62.32
2022-09-24T08:08:14.426Z,59.38
2022-09-24T08:10:43.952Z,60.54
2022-09-24T08:13:12.308Z,60.24
2022-09-24T08:15:40.744Z,57.87
2022-09-24T08:18:09.221Z,58.50
2022-09-24T08:20:38.485Z,61.29
2022-09-24T08:23:10.157Z,59.51
2022-09-24T08:25:38.073Z,57.20
2022-09-24T08:28:09.083Z,56.68
2022-09-24T08:30:37.458Z,58.16
2022-09-24T08:33:06.724Z,58.60
2022-09-24T08:35:34.742Z,57.42
2022-09-24T08:38:03.678Z,57.62
2022-09-24T08:40:34.745Z,61.00
2022-09-24T08:43:11.178Z,57.88
2022-09-24T08:46:03.951Z,58.47
2022-09-24T08:48:37.340Z,59.85
2022-09-24T08:51:09.592Z,59.24
2022-09-24T08:53:48.801Z,59.38
2022-09-24T08:56:22.025Z,56.04
2022-09-24T08:58:56.398Z,56.68
2022-09-24T09:01:34.282Z,54.85
2022-09-24T09:04:06.368Z,56.79
2022-09-24T09:06:49.489Z,52.80
2022-09-24T09:09:20.172Z,53.16
2022-09-24T09:11:52.105Z,52.81
2022-09-24T09:14:31.183Z,51.59
2022-09-24T09:17:04.173Z,55.69
2022-09-24T09:19:36.183Z,51.63
2022-09-24T09:22:09.418Z,50.13
2022-09-24T09:24:44.645Z,50.97
2022-09-24T09:27:15.425Z,52.41
2022-09-24T09:29:49.723Z,52.19
2022-09-24T09:32:32.169Z,52.27
2022-09-24T09:35:07.327Z,48.40
2022-09-24T09:37:42.455Z,49.92
2022-09-24T09:40:31.303Z,49.59
2022-09-24T09:43:04.328Z,45.38
2022-09-24T09:45:39.522Z,47.61
2022-09-24T09:48:12.959Z,48.18
2022-09-24T09:50:45.755Z,42.66
2022-09-24T09:53:21.846Z,44.67
2022-09-24T09:55:54.711Z,44.37
2022-09-24T09:58:25.643Z,42.15
2022-09-24T10:01:05.925Z,43.54
2022-09-24T10:03:37.587Z,43.94
2022-09-24T10:06:07.792Z,42.12
2022-09-24T10:08:36.051Z,41.39
2022-09-24T10:11:04.734Z,45.38
2022-09-24T10:13:33.195Z,42.04
2022-09-24T10:16:05.370Z,44.86
2022-09-24T10:18:36.171Z,42.01
2022-09-24T10:21:10.133Z,44.86
2022-09-24T10:23:40.229Z,42.62
2022-09-24T10:26:09.217Z,42.86
2022-09-24T10:29:00.425Z,45.06
2022-09-24T10:31:32.420Z,39.13
2022-09-24T10:34:02.587Z,40.15
2022-09-24T10:36:32.614Z,43.57
2022-09-24T10:39:05.562Z,40.40
2022-09-24T10:41:33.753Z,41.28
2022-09-24T10:44:05.573Z,41.82
2022-09-24T10:47:08.089Z,42.36
2022-09-24T10:49:54.534Z,40.11
2022-09-24T10:52:40.614Z,40.43
2022-09-24T10:55:20.767Z,40.02
2022-09-24T10:57:59.936Z,41.23
2022-09-24T11:00:38.583Z,37.55
2022-09-24T11:03:36.454Z,38.50
2022-09-24T11:06:18.276Z,42.22
2022-09-24T11:09:07.992Z,43.22
2022-09-24T11:11:48.955Z,41.85
2022-09-24T11:14:30.281Z,39.21
2022-09-24T11:17:11.660Z,39.66
2022-09-24T11:19:54.338Z,40.29
2022-09-24T11:22:34.364Z,39.54
2022-09-24T11:25:21.286Z,40.32
2022-09-24T11:27:57.472Z,39.08
2022-09-24T11:30:29.686Z,39.58
2022-09-24T11:33:09.141Z,37.94
2022-09-24T11:35:56.642Z,37.69
2022-09-24T11:38:38.250Z,39.49
2022-09-24T11:41:24.477Z,38.01
2022-09-24T11:44:10.265Z,41.04
2022-09-24T11:46:53.927Z,39.14
2022-09-24T11:49:38.798Z,40.84
2022-09-24T11:52:11.650Z,41.10
2022-09-24T11:54:46.963Z,41.35
2022-09-24T11:57:20.132Z,39.42
2022-09-24T11:59:54.892Z,37.33
2022-09-24T12:02:27.851Z,37.43
2022-09-24T12:05:02.094Z,40.14
2022-09-24T12:07:36.595Z,39.08
2022-09-24T12:10:26.143Z,36.04
2022-09-24T12:12:58.816Z,36.31
2022-09-24T12:15:32.131Z,39.08
2022-09-24T12:18:07.542Z,42.57
2022-09-24T12:20:46.047Z,41.26
2022-09-24T12:23:18.062Z,42.50
2022-09-24T12:25:49.774Z,40.27
2022-09-24T12:28:40.870Z,41.11
2022-09-24T12:31:34.546Z,39.60
2022-09-24T12:34:11.595Z,43.04
2022-09-24T12:36:57.468Z,41.73
2022-09-24T12:39:29.834Z,42.33
2022-09-24T12:42:03.828Z,43.36
2022-09-24T12:44:40.423Z,42.61
2022-09-24T12:47:19.036Z,41.04
2022-09-24T12:49:52.643Z,44.33
2022-09-24T12:52:26.398Z,42.35
2022-09-24T12:55:00.586Z,42.67
2022-09-24T12:57:34.928Z,45.66
2022-09-24T13:00:06.131Z,46.97
2022-09-24T13:02:46.738Z,44.18
2022-09-24T13:05:28.384Z,47.29
2022-09-24T13:07:59.466Z,42.54
2022-09-24T13:10:29.969Z,42.93
2022-09-24T13:13:00.958Z,43.74
2022-09-24T13:15:34.592Z,40.45
2022-09-24T13:18:18.699Z,44.74
2022-09-24T13:20:57.898Z,44.03
2022-09-24T13:23:48.658Z,42.69
2022-09-24T13:26:30.236Z,45.28
2022-09-24T13:29:01.641Z,44.84
2022-09-24T13:31:45.009Z,44.05
2022-09-24T13:34:21.575Z,44.97
2022-09-24T13:36:57.729Z,43.17
2022-09-24T13:39:34.708Z,42.13
2022-09-24T13:42:09.675Z,45.75
2022-09-24T13:44:43.697Z,43.47
2022-09-24T13:47:16.699Z,43.80
2022-09-24T13:49:48.475Z,42.31
2022-09-24T13:52:30.098Z,45.61
2022-09-24T13:55:00.818Z,45.89
2022-09-24T13:57:30.399Z,47.32
2022-09-24T14:00:27.822Z,46.49
2022-09-24T14:03:00.943Z,46.48
2022-09-24T14:05:30.566Z,47.30
2022-09-24T14:08:03.035Z,46.87
2022-09-24T14:10:31.192Z,46.91
2022-09-24T14:13:05.826Z,48.43
2022-09-24T14:15:36.341Z,47.67
2022-09-24T14:18:06.998Z,45.31
2022-09-24T14:20:38.174Z,46.94
2022-09-24T14:23:06.591Z,47.41
2022-09-24T14:25:36.476Z,46.66
2022-09-24T14:28:06.402Z,48.06
2022-09-24T14:30:40.272Z,48.34
2022-09-24T14:33:14.889Z,48.63
2022-09-24T14:35:48.229Z,48.75
2022-09-24T14:38:23.066Z,50.70
2022-09-24T14:40:55.034Z,52.32
2022-09-24T14:43:28.974Z,50.50
2022-09-24T14:46:02.916Z,50.31
2022-09-24T14:48:32.571Z,52.52
2022-09-24T14:51:00.695Z,51.77
2022-09-24T14:53:33.111Z,52.15
2022-09-24T14:56:01.396Z,52.98
2022-09-24T14:58:37.489Z,52.00
2022-09-24T15:01:14.030Z,50.81
2022-09-24T15:03:44.537Z,51.83
2022-09-24T15:06:22.291Z,51.36
2022-09-24T15:08:57.579Z,52.18
2022-09-24T15:11:28.855Z,51.62
2022-09-24T15:14:02.417Z,51.77
2022-09-24T15:16:35.221Z,53.98
2022-09-24T15:19:16.920Z,52.73
2022-09-24T15:21:45.561Z,53.19
2022-09-24T15:24:13.505Z,52.36
2022-09-24T15:26:44.062Z,51.77
2022-09-24T15:29:21.015Z,52.84
2022-09-24T15:31:50.726Z,53.49
2022-09-24T15:34:20.289Z,54.63
2022-09-24T15:36:48.757Z,54.88
2022-09-24T15:39:18.779Z,55.24
2022-09-24T15:41:46.775Z,55.41
2022-09-24T15:44:20.847Z,55.37
2022-09-24T15:46:51.627Z,55.65
2022-09-24T15:49:22.101Z,56.20
2022-09-24T15:51:52.128Z,56.00
2022-09-24T15:54:21.721Z,56.36
2022-09-24T15:56:52.511Z,56.57
2022-09-24T15:59:21.302Z,57.01
2022-09-24T16:01:53.271Z,57.07
2022-09-24T16:04:21.278Z,57.10
2022-09-24T16:06:49.638Z,57.68
2022-09-24T16:09:17.765Z,59.12
2022-09-24T16:11:46.958Z,59.08
2022-09-24T16:14:14.910Z,58.74
2022-09-24T16:16:42.836Z,58.39
2022-09-24T16:19:12.594Z,59.01
2022-09-24T16:21:40.838Z,59.31
2022-09-24T16:24:08.823Z,59.36
2022-09-24T16:26:37.439Z,59.32
2022-09-24T16:29:06.740Z,58.71
2022-09-24T16:31:34.803Z,59.13
2022-09-24T16:34:02.791Z,59.32
2022-09-24T16:36:32.113Z,59.43
2022-09-24T16:39:00.245Z,59.81
2022-09-24T16:41:34.297Z,60.33
2022-09-24T16:44:02.492Z,60.28
2022-09-24T16:46:30.772Z,60.18
2022-09-24T16:48:58.797Z,60.33
2022-09-24T16:51:26.723Z,61.22
2022-09-24T16:53:57.218Z,61.40
2022-09-24T16:56:25.754Z,61.55
2022-09-24T16:58:54.496Z,61.13
2022-09-24T17:01:23.357Z,61.94
2022-09-24T17:03:55.334Z,61.83
2022-09-24T17:06:25.040Z,61.93
2022-09-24T17:09:07.426Z,62.43
2022-09-24T17:11:37.130Z,63.14
2022-09-24T17:14:05.515Z,63.44
2022-09-24T17:16:33.675Z,63.63
2022-09-24T17:19:01.770Z,63.76
2022-09-24T17:21:29.996Z,64.02
2022-09-24T17:23:57.940Z,64.11
2022-09-24T17:26:26.159Z,63.69
2022-09-24T17:28:55.965Z,63.99
2022-09-24T17:31:25.833Z,63.90
2022-09-24T17:33:57.293Z,64.27
2022-09-24T17:36:25.922Z,64.41
2022-09-24T17:38:53.934Z,64.63
2022-09-24T17:41:23.050Z,64.55
2022-09-24T17:43:51.802Z,64.76
2022-09-24T17:46:23.427Z,64.84
2022-09-24T17:48:53.199Z,64.72
2022-09-24T17:51:23.254Z,65.43
2022-09-24T17:53:53.093Z,65.84
2022-09-24T17:56:23.269Z,65.59
2022-09-24T17:58:52.255Z,66.05
2022-09-24T18:01:24.198Z,66.10
2022-09-24T18:03:55.078Z,66.16
2022-09-24T18:06:27.083Z,66.44
2022-09-24T18:08:58.143Z,66.80
2022-09-24T18:11:27.945Z,67.00
2022-09-24T18:13:57.439Z,67.37
2022-09-24T18:16:28.733Z,66.89
2022-09-24T18:18:57.259Z,67.01
2022-09-24T18:21:25.666Z,67.38
2022-09-24T18:23:54.449Z,67.01
2022-09-24T18:26:24.611Z,67.16
2022-09-24T18:28:54.177Z,67.26
2022-09-24T18:31:24.444Z,67.48
2022-09-24T18:33:54.675Z,68.02
2022-09-24T18:36:25.663Z,68.03
2022-09-24T18:38:54.403Z,67.70
2022-09-24T18:41:24.111Z,68.11
2022-09-24T18:43:52.694Z,67.64
2022-09-24T18:46:23.063Z,67.55
2022-09-24T18:48:55.769Z,68.03
2022-09-24T18:51:25.493Z,67.60
2022-09-24T18:53:54.703Z,67.78
2022-09-24T18:56:24.203Z,69.55
2022-09-24T18:58:56.637Z,69.66
2022-09-24T19:01:25.377Z,69.80
2022-09-24T19:03:55.154Z,70.41
2022-09-24T19:06:23.259Z,71.21
2022-09-24T19:08:51.177Z,71.20
2022-09-24T19:11:19.229Z,71.34
2022-09-24T19:13:50.090Z,70.38
2022-09-24T19:16:19.604Z,71.15
2022-09-24T19:18:47.665Z,70.72
2022-09-24T19:21:17.174Z,71.16
2022-09-24T19:23:47.827Z,71.38
2022-09-24T19:26:18.022Z,71.77
2022-09-24T19:28:47.298Z,71.25
2022-09-24T19:31:17.335Z,71.94
2022-09-24T19:33:45.323Z,72.46
2022-09-24T19:36:13.322Z,72.34
2022-09-24T19:38:42.774Z,72.60
2022-09-24T19:41:14.042Z,72.23
2022-09-24T19:43:43.761Z,72.38
2022-09-24T19:46:14.691Z,72.56
2022-09-24T19:48:45.612Z,73.20
2022-09-24T19:51:15.722Z,73.47
2022-09-24T19:53:47.915Z,73.87
2022-09-24T19:56:16.481Z,74.00
2022-09-24T19:58:46.670Z,74.52
2022-09-24T20:01:17.490Z,74.93
2022-09-24T20:03:45.748Z,75.00
2022-09-24T20:06:16.200Z,75.42
2022-09-24T20:08:46.759Z,75.46
2022-09-24T20:11:18.285Z,76.05
2022-09-24T20:13:47.327Z,76.20
2022-09-24T20:16:16.602Z,76.42
2022-09-24T20:18:45.068Z,75.62
2022-09-24T20:21:13.570Z,75.81
2022-09-24T20:23:41.522Z,75.91
2022-09-24T20:26:32.126Z,75.51
2022-09-24T20:29:00.637Z,76.39
2022-09-24T20:31:29.162Z,76.75
2022-09-24T20:33:57.143Z,76.47
2022-09-24T20:36:25.616Z,76.80
2022-09-24T20:38:54.403Z,75.89
2022-09-24T20:41:25.302Z,76.97
2022-09-24T20:43:56.586Z,76.74
2022-09-24T20:46:27.759Z,76.85
2022-09-24T20:48:58.223Z,77.14
2022-09-24T20:51:27.538Z,76.50
2022-09-24T20:53:55.992Z,76.91
2022-09-24T20:56:25.301Z,77.14
2022-09-24T20:58:54.787Z,77.51
2022-09-24T21:01:24.938Z,77.41
2022-09-24T21:03:53.408Z,78.13
2022-09-24T21:06:23.114Z,79.01
2022-09-24T21:08:52.208Z,78.58
2022-09-24T21:11:22.538Z,78.28
2022-09-24T21:13:53.395Z,79.08
2022-09-24T21:16:25.037Z,78.96
2022-09-24T21:18:55.300Z,79.17
2022-09-24T21:21:25.057Z,78.48
2022-09-24T21:23:54.296Z,81.42
2022-09-24T21:26:24.649Z,83.44
2022-09-24T21:28:56.108Z,83.80
2022-09-24T21:31:26.644Z,84.23
2022-09-24T21:33:54.916Z,83.77
2022-09-24T21:36:24.527Z,82.81
2022-09-24T21:38:55.403Z,83.08
2022-09-24T21:41:23.462Z,82.76
2022-09-24T21:43:53.580Z,82.61
2022-09-24T21:46:23.605Z,82.13
2022-09-24T21:49:07.998Z,83.07
2022-09-24T21:51:36.082Z,83.09
2022-09-24T21:54:06.307Z,84.00
2022-09-24T21:56:36.197Z,85.78
2022-09-24T21:59:25.918Z,85.61
2022-09-24T22:01:55.667Z,87.61
2022-09-24T22:04:23.763Z,87.44
2022-09-24T22:06:52.670Z,86.39
2022-09-24T22:09:21.607Z,87.05
2022-09-24T22:11:49.991Z,87.34
2022-09-24T22:14:17.945Z,86.42
2022-09-24T22:16:45.930Z,86.50
2022-09-24T22:19:15.535Z,85.51
2022-09-24T22:21:43.479Z,84.47
2022-09-24T22:24:11.873Z,84.51
2022-09-24T22:26:40.420Z,85.17
2022-09-24T22:29:08.438Z,86.15
2022-09-24T22:31:36.363Z,85.97
2022-09-24T22:34:22.062Z,85.99
2022-09-24T22:36:51.849Z,86.51
2022-09-24T22:39:19.789Z,86.70
2022-09-24T22:41:48.042Z,86.99
2022-09-24T22:44:15.969Z,87.15
2022-09-24T22:46:43.873Z,87.13
2022-09-24T22:49:11.979Z,88.61
2022-09-24T22:51:39.928Z,88.76
2022-09-24T22:54:10.048Z,88.74
2022-09-24T22:56:38.388Z,88.62
2022-09-24T22:59:06.955Z,88.77
2022-09-24T23:01:36.409Z,87.81
2022-09-24T23:04:04.491Z,88.30
2022-09-24T23:06:34.310Z,87.67
2022-09-24T23:09:02.945Z,88.51
2022-09-24T23:11:33.751Z,88.35
2022-09-24T23:14:03.505Z,87.14
2022-09-24T23:16:34.428Z,87.52
2022-09-24T23:19:05.065Z,87.26
2022-09-24T23:21:34.233Z,87.20
2022-09-24T23:24:04.482Z,86.58
2022-09-24T23:26:34.140Z,86.38
2022-09-24T23:29:02.252Z,86.54
2022-09-24T23:31:32.262Z,83.39
2022-09-24T23:34:01.639Z,81.02
2022-09-24T23:36:31.650Z,78.95
2022-09-24T23:39:00.342Z,79.52
2022-09-24T23:41:31.662Z,79.15
2022-09-24T23:44:01.465Z,79.88
2022-09-24T23:46:29.827Z,78.29
2022-09-24T23:48:58.553Z,77.50
2022-09-24T23:51:26.508Z,78.15
2022-09-24T23:53:54.694Z,78.26
2022-09-24T23:56:23.214Z,77.23
2022-09-24T23:58:51.168Z,78.23
